Time;durP1;ratioP1;P1;durP2;ratioP2;P2;SDS_P1;SDS_P2;PMS_P1;PMS_P2;Temp;Humidity;BMP_temperature;BMP_pressure;BME280_temperature;BME280_humidity;BME280_pressure;Samples;Min_cycle;Max_cycle;Signal;HPM_P1;HPM_P2
2022/05/07 00:01:38;;;;;;;;;;;14.50;91.70;;;;;;4993110;28;20271;-75
2022/05/07 00:04:04;;;;;;;;;;;14.50;91.80;;;;;;4992658;28;20376;-74
2022/05/07 00:06:29;;;;;;;;;;;14.40;91.90;;;;;;4992750;28;20328;-74
2022/05/07 00:08:55;;;;;;;;;;;14.30;92.00;;;;;;4992623;28;19925;-74
2022/05/07 00:11:21;;;;;;;;;;;14.30;91.90;;;;;;4992116;28;20331;-75
2022/05/07 00:13:47;;;;;;;;;;;14.20;92.00;;;;;;4992939;28;19976;-75
2022/05/07 00:18:57;;;;;;;;;;;14.10;92.40;;;;;;4992467;28;20289;-75
2022/05/07 00:21:22;;;;;;;;;;;14.10;92.60;;;;;;4992401;28;20001;-75
2022/05/07 00:23:48;;;;;;;;;;;14.10;92.70;;;;;;5024423;28;20216;-74
2022/05/07 00:26:13;;;;;;;;;;;14.10;92.70;;;;;;4992680;28;19976;-74
2022/05/07 00:28:38;;;;;;;;;;;14.00;92.70;;;;;;4993150;28;19965;-74
2022/05/07 00:31:04;;;;;;;;;;;14.00;92.80;;;;;;4992469;28;19925;-74
2022/05/07 00:33:29;;;;;;;;;;;14.00;92.70;;;;;;4992217;28;19953;-75
2022/05/07 00:35:55;;;;;;;;;;;13.90;92.90;;;;;;4992123;28;19921;-75
2022/05/07 00:38:20;;;;;;;;;;;13.90;92.90;;;;;;5024017;28;19941;-74
2022/05/07 00:40:46;;;;;;;;;;;13.90;93.10;;;;;;4992612;28;19910;-75
2022/05/07 00:43:15;;;;;;;;;;;13.90;93.00;;;;;;5007490;28;19946;-75
2022/05/07 00:45:44;;;;;;;;;;;13.90;93.10;;;;;;4992173;28;20362;-75
2022/05/07 00:48:10;;;;;;;;;;;13.90;93.20;;;;;;4992232;28;19953;-75
2022/05/07 00:53:22;;;;;;;;;;;13.80;93.30;;;;;;4992367;28;19925;-75
2022/05/07 00:55:49;;;;;;;;;;;13.80;93.40;;;;;;4992536;28;20269;-73
2022/05/07 00:58:15;;;;;;;;;;;13.70;93.40;;;;;;4992227;28;19972;-75
2022/05/07 01:00:43;;;;;;;;;;;13.70;93.60;;;;;;4992061;28;19914;-75
2022/05/07 01:03:09;;;;;;;;;;;13.70;93.70;;;;;;4992011;28;19953;-74
2022/05/07 01:05:34;;;;;;;;;;;13.70;93.60;;;;;;4992018;28;20344;-75
2022/05/07 01:08:00;;;;;;;;;;;13.70;93.70;;;;;;4992044;28;19910;-74
2022/05/07 01:10:26;;;;;;;;;;;13.70;93.80;;;;;;4992418;28;19910;-74
2022/05/07 01:12:53;;;;;;;;;;;13.60;93.90;;;;;;4992201;28;20256;-73
2022/05/07 01:15:19;;;;;;;;;;;13.50;94.10;;;;;;4992182;28;20001;-74
2022/05/07 01:17:44;;;;;;;;;;;13.60;94.10;;;;;;5023690;28;19926;-74
2022/05/07 01:20:12;;;;;;;;;;;13.60;94.10;;;;;;5007310;28;19909;-74
2022/05/07 01:22:38;;;;;;;;;;;13.60;94.20;;;;;;4994153;28;19920;-75
2022/05/07 01:25:04;;;;;;;;;;;13.50;94.40;;;;;;4995831;28;19922;-74
2022/05/07 01:27:30;;;;;;;;;;;13.60;94.10;;;;;;4995568;28;20285;-74
2022/05/07 01:29:56;;;;;;;;;;;13.60;94.20;;;;;;4995909;28;19914;-75
2022/05/07 01:32:22;;;;;;;;;;;13.50;94.20;;;;;;4995717;28;20377;-75
2022/05/07 01:34:48;;;;;;;;;;;13.50;94.30;;;;;;4995663;28;19913;-74
2022/05/07 01:37:13;;;;;;;;;;;13.50;94.30;;;;;;5015156;28;19948;-74
2022/05/07 01:39:38;;;;;;;;;;;13.40;94.40;;;;;;5015044;28;20244;-74
2022/05/07 01:42:04;;;;;;;;;;;13.40;94.50;;;;;;5014929;28;19914;-74
2022/05/07 01:44:30;;;;;;;;;;;13.40;94.50;;;;;;5047046;28;19948;-74
2022/05/07 01:49:39;;;;;;;;;;;13.40;94.70;;;;;;5014806;28;20021;-74
2022/05/07 01:52:05;;;;;;;;;;;13.50;94.70;;;;;;5014870;28;19996;-74
2022/05/07 01:54:31;;;;;;;;;;;13.50;94.70;;;;;;5014784;28;19981;-74
2022/05/07 01:56:56;;;;;;;;;;;13.40;94.70;;;;;;5014785;28;19925;-74
2022/05/07 01:59:21;;;;;;;;;;;13.50;94.70;;;;;;5014750;28;19913;-74
2022/05/07 02:01:47;;;;;;;;;;;13.50;94.90;;;;;;5014958;28;19919;-73
2022/05/07 02:04:12;;;;;;;;;;;13.50;94.70;;;;;;5014509;28;19925;-74
2022/05/07 02:06:38;;;;;;;;;;;13.60;94.80;;;;;;5014723;28;19948;-73
2022/05/07 02:09:03;;;;;;;;;;;13.70;94.80;;;;;;5014423;28;20271;-74
2022/05/07 02:11:29;;;;;;;;;;;13.70;95.10;;;;;;5014458;28;19961;-74
2022/05/07 02:13:54;;;;;;;;;;;13.70;94.90;;;;;;5014756;28;19924;-74
2022/05/07 02:16:20;;;;;;;;;;;13.70;94.90;;;;;;5014322;28;19960;-74
2022/05/07 02:18:45;;;;;;;;;;;13.80;95.00;;;;;;5029818;28;19943;-74
2022/05/07 02:21:11;;;;;;;;;;;13.70;95.00;;;;;;5046326;28;19913;-74
2022/05/07 02:23:36;;;;;;;;;;;13.70;95.10;;;;;;5014171;28;20020;-74
2022/05/07 02:26:05;;;;;;;;;;;13.70;95.20;;;;;;5014326;28;20349;-73
2022/05/07 02:28:30;;;;;;;;;;;13.70;95.10;;;;;;5014489;28;19910;-74
2022/05/07 02:30:56;;;;;;;;;;;13.70;95.10;;;;;;5013992;28;19914;-73
2022/05/07 02:33:21;;;;;;;;;;;13.80;95.30;;;;;;5013591;28;19913;-74
2022/05/07 02:35:46;;;;;;;;;;;13.70;95.30;;;;;;5046005;28;19983;-74
2022/05/07 02:38:12;;;;;;;;;;;13.80;95.40;;;;;;5014021;28;19909;-74
2022/05/07 02:43:24;;;;;;;;;;;13.80;95.40;;;;;;5014059;28;20354;-74
2022/05/07 02:45:50;;;;;;;;;;;13.80;95.30;;;;;;5013818;28;20514;-74
2022/05/07 02:48:16;;;;;;;;;;;13.90;95.30;;;;;;5013652;28;19924;-74
2022/05/07 02:50:41;;;;;;;;;;;13.90;95.40;;;;;;5013731;28;19976;-74
2022/05/07 02:53:07;;;;;;;;;;;13.90;95.20;;;;;;5013650;28;19910;-74
2022/05/07 02:55:32;;;;;;;;;;;13.90;95.30;;;;;;5013958;28;19913;-74
2022/05/07 02:57:58;;;;;;;;;;;13.90;95.40;;;;;;5013572;28;19929;-74
2022/05/07 03:00:23;;;;;;;;;;;13.90;95.10;;;;;;5045640;28;20008;-74
2022/05/07 03:02:49;;;;;;;;;;;13.90;95.20;;;;;;5013402;28;20123;-75
2022/05/07 03:05:14;;;;;;;;;;;13.90;95.30;;;;;;5013290;28;19910;-74
2022/05/07 03:07:40;;;;;;;;;;;13.80;95.50;;;;;;5013842;28;20335;-76
2022/05/07 03:10:06;;;;;;;;;;;13.80;95.60;;;;;;5013417;28;19920;-75
2022/05/07 03:12:32;;;;;;;;;;;13.80;95.60;;;;;;5013371;28;19941;-75
2022/05/07 03:14:58;;;;;;;;;;;13.70;95.60;;;;;;5028898;28;19928;-73
2022/05/07 03:17:26;;;;;;;;;;;13.70;95.60;;;;;;5045190;28;19913;-74
2022/05/07 03:19:51;;;;;;;;;;;13.70;95.70;;;;;;5013852;28;20056;-74
2022/05/07 03:22:17;;;;;;;;;;;13.70;95.70;;;;;;5013336;28;20354;-74
2022/05/07 03:24:42;;;;;;;;;;;13.70;95.50;;;;;;5012858;28;19921;-73
2022/05/07 03:27:08;;;;;;;;;;;13.70;95.70;;;;;;5013209;28;20482;-75
2022/05/07 03:29:33;;;;;;;;;;;13.70;95.60;;;;;;5045105;28;19917;-73
2022/05/07 03:31:59;;;;;;;;;;;13.80;95.30;;;;;;5013001;28;20012;-74
2022/05/07 03:34:24;;;;;;;;;;;13.70;95.60;;;;;;5013178;28;19914;-73
2022/05/07 03:36:50;;;;;;;;;;;13.60;95.70;;;;;;5012815;28;20245;-75
2022/05/07 03:39:16;;;;;;;;;;;13.60;95.80;;;;;;5012819;28;19914;-75
2022/05/07 03:41:41;;;;;;;;;;;13.50;95.80;;;;;;5012624;28;19921;-75
2022/05/07 03:44:07;;;;;;;;;;;13.50;95.90;;;;;;5012688;28;19909;-74
2022/05/07 03:46:32;;;;;;;;;;;13.50;95.80;;;;;;5012876;28;19937;-75
2022/05/07 03:48:58;;;;;;;;;;;13.40;95.80;;;;;;5012440;28;19936;-74
2022/05/07 03:51:23;;;;;;;;;;;13.30;96.00;;;;;;5044457;28;19917;-74
2022/05/07 03:53:49;;;;;;;;;;;13.30;96.00;;;;;;5012434;28;19976;-74
2022/05/07 03:56:14;;;;;;;;;;;13.30;96.00;;;;;;5044510;28;19917;-73
2022/05/07 03:58:40;;;;;;;;;;;13.20;96.00;;;;;;5045035;28;19972;-74
2022/05/07 04:01:08;;;;;;;;;;;13.10;96.00;;;;;;5012792;28;19967;-75
2022/05/07 04:03:34;;;;;;;;;;;13.10;96.10;;;;;;5012511;28;19918;-74
2022/05/07 04:05:59;;;;;;;;;;;13.10;96.10;;;;;;5012516;28;20397;-74
2022/05/07 04:08:24;;;;;;;;;;;13.10;96.10;;;;;;5012366;28;19913;-74
2022/05/07 04:10:50;;;;;;;;;;;13.10;96.20;;;;;;5012617;28;19952;-74
2022/05/07 04:13:16;;;;;;;;;;;13.10;96.20;;;;;;5012272;28;19913;-74
2022/05/07 04:15:43;;;;;;;;;;;13.10;96.10;;;;;;5027511;28;19929;-74
2022/05/07 04:18:09;;;;;;;;;;;13.10;96.20;;;;;;5012405;28;19913;-74
2022/05/07 04:20:35;;;;;;;;;;;13.00;96.30;;;;;;5012407;28;19913;-74
2022/05/07 04:23:00;;;;;;;;;;;13.10;96.40;;;;;;5012107;28;19946;-73
2022/05/07 04:25:26;;;;;;;;;;;13.10;96.30;;;;;;5012460;28;19912;-73
2022/05/07 04:27:52;;;;;;;;;;;13.10;96.40;;;;;;5012034;28;20348;-74
2022/05/07 04:30:18;;;;;;;;;;;13.20;96.40;;;;;;5011864;28;20020;-74
2022/05/07 04:32:43;;;;;;;;;;;13.20;96.40;;;;;;5011958;28;19917;-74
2022/05/07 04:35:08;;;;;;;;;;;13.30;96.50;;;;;;5043665;28;19965;-73
2022/05/07 04:37:34;;;;;;;;;;;13.30;96.50;;;;;;5012232;28;19913;-73
2022/05/07 04:40:00;;;;;;;;;;;13.40;96.40;;;;;;5011860;28;19917;-74
2022/05/07 04:42:25;;;;;;;;;;;13.40;96.40;;;;;;5012082;28;19974;-72
2022/05/07 04:44:50;;;;;;;;;;;13.50;96.50;;;;;;5011810;28;19952;-75
2022/05/07 04:47:16;;;;;;;;;;;13.50;96.50;;;;;;5011731;28;19925;-74
2022/05/07 04:49:41;;;;;;;;;;;13.50;96.60;;;;;;5012183;28;19921;-74
2022/05/07 04:52:07;;;;;;;;;;;13.60;96.60;;;;;;5011842;28;19913;-74
2022/05/07 04:54:33;;;;;;;;;;;13.70;96.90;;;;;;5011678;28;19926;-74
2022/05/07 04:56:59;;;;;;;;;;;13.70;96.50;;;;;;5031464;28;19917;-74
2022/05/07 04:59:24;;;;;;;;;;;13.80;96.60;;;;;;5017753;28;19930;-73
2022/05/07 05:01:50;;;;;;;;;;;13.80;96.50;;;;;;5018476;28;19913;-74
2022/05/07 05:04:16;;;;;;;;;;;13.90;96.50;;;;;;5018438;28;19924;-74
2022/05/07 05:06:42;;;;;;;;;;;14.00;96.50;;;;;;5018153;28;20348;-74
2022/05/07 05:09:08;;;;;;;;;;;14.00;96.50;;;;;;5018202;28;19914;-74
2022/05/07 05:11:34;;;;;;;;;;;14.00;96.40;;;;;;5018260;28;19952;-75
2022/05/07 05:13:59;;;;;;;;;;;14.10;96.50;;;;;;5033225;28;19917;-75
2022/05/07 05:16:25;;;;;;;;;;;14.20;96.20;;;;;;5018336;28;19935;-74
2022/05/07 05:18:51;;;;;;;;;;;14.30;96.30;;;;;;5017948;28;19924;-75
2022/05/07 05:21:16;;;;;;;;;;;14.30;96.30;;;;;;5017991;28;20030;-74
2022/05/07 05:23:42;;;;;;;;;;;14.40;96.20;;;;;;5018014;28;19914;-75
2022/05/07 05:26:07;;;;;;;;;;;14.40;96.10;;;;;;5017944;28;20362;-75
2022/05/07 05:28:35;;;;;;;;;;;14.50;96.30;;;;;;5018476;28;19905;-75
2022/05/07 05:31:05;;;;;;;;;;;14.50;96.30;;;;;;5018017;28;19917;-75
2022/05/07 05:33:30;;;;;;;;;;;14.60;96.30;;;;;;5017737;28;20000;-75
2022/05/07 05:35:56;;;;;;;;;;;14.60;96.40;;;;;;5017760;28;20343;-75
2022/05/07 05:38:21;;;;;;;;;;;14.70;96.40;;;;;;5049852;28;19914;-74
2022/05/07 05:40:46;;;;;;;;;;;14.80;96.50;;;;;;5018304;28;19910;-74
2022/05/07 05:43:12;;;;;;;;;;;14.90;96.30;;;;;;5017843;28;19913;-75
2022/05/07 05:45:37;;;;;;;;;;;15.00;96.20;;;;;;5017638;28;20308;-75
2022/05/07 05:48:04;;;;;;;;;;;15.10;96.00;;;;;;5017569;28;19918;-75
2022/05/07 05:50:30;;;;;;;;;;;15.30;96.00;;;;;;5017594;28;20020;-75
2022/05/07 05:52:58;;;;;;;;;;;15.40;96.00;;;;;;5018141;28;20241;-76
2022/05/07 05:55:24;;;;;;;;;;;15.50;95.90;;;;;;5017845;28;20228;-76
2022/05/07 05:57:50;;;;;;;;;;;15.60;95.60;;;;;;5017630;28;20374;-76
2022/05/07 06:00:16;;;;;;;;;;;15.60;95.80;;;;;;5018019;28;20035;-75
2022/05/07 06:02:44;;;;;;;;;;;15.60;95.80;;;;;;5017758;28;19949;-75
2022/05/07 06:05:09;;;;;;;;;;;15.70;95.80;;;;;;5017604;28;19914;-76
2022/05/07 06:07:35;;;;;;;;;;;15.80;95.50;;;;;;5016311;28;19997;-76
2022/05/07 06:10:01;;;;;;;;;;;15.90;95.30;;;;;;5014587;28;20243;-76
2022/05/07 06:12:26;;;;;;;;;;;15.90;95.60;;;;;;5014615;28;19929;-76
2022/05/07 06:14:52;;;;;;;;;;;16.10;95.10;;;;;;5014546;28;19936;-77
2022/05/07 06:17:18;;;;;;;;;;;16.20;95.00;;;;;;5029832;28;19926;-76
2022/05/07 06:19:43;;;;;;;;;;;16.20;94.90;;;;;;5014783;28;19913;-77
2022/05/07 06:22:08;;;;;;;;;;;16.30;94.80;;;;;;5014345;28;19918;-76
2022/05/07 06:27:33;;;;;;;;;;;16.60;94.00;;;;;;5014327;28;19944;-77
2022/05/07 06:29:59;;;;;;;;;;;16.80;93.80;;;;;;5013993;28;20232;-76
2022/05/07 06:32:34;;;;;;;;;;;17.00;93.30;;;;;;5013963;28;20343;-76
2022/05/07 06:35:03;;;;;;;;;;;17.30;92.80;;;;;;5013861;28;19924;-76
2022/05/07 06:37:29;;;;;;;;;;;17.80;90.90;;;;;;5014377;28;19914;-76
2022/05/07 06:39:55;;;;;;;;;;;18.00;90.00;;;;;;5046261;28;19993;-74
2022/05/07 06:42:21;;;;;;;;;;;18.20;89.40;;;;;;5013800;28;20016;-75
2022/05/07 06:44:46;;;;;;;;;;;18.30;87.30;;;;;;5028930;28;19966;-76
2022/05/07 06:47:12;;;;;;;;;;;18.50;87.20;;;;;;5013705;28;19940;-76
2022/05/07 06:49:38;;;;;;;;;;;18.60;85.90;;;;;;5013996;28;19956;-75
2022/05/07 06:52:04;;;;;;;;;;;18.60;85.30;;;;;;5013645;28;19945;-76
2022/05/07 06:54:29;;;;;;;;;;;18.70;85.10;;;;;;5028898;28;19995;-76
2022/05/07 06:56:54;;;;;;;;;;;18.70;84.70;;;;;;5045676;28;19945;-75
2022/05/07 06:59:20;;;;;;;;;;;18.80;84.50;;;;;;5013251;28;19914;-75
2022/05/07 07:01:47;;;;;;;;;;;18.90;84.50;;;;;;5013858;28;19963;-75
2022/05/07 07:04:12;;;;;;;;;;;18.90;84.20;;;;;;5013590;28;19964;-75
2022/05/07 07:06:37;;;;;;;;;;;18.90;83.70;;;;;;5013414;28;19914;-75
2022/05/07 07:09:03;;;;;;;;;;;18.90;83.60;;;;;;5012978;28;19928;-75
2022/05/07 07:11:29;;;;;;;;;;;18.80;83.30;;;;;;5013659;28;19917;-74
2022/05/07 07:13:55;;;;;;;;;;;18.80;83.80;;;;;;5013705;28;21807;-74
2022/05/07 07:16:20;;;;;;;;;;;18.70;83.40;;;;;;5013399;28;19964;-76
2022/05/07 07:18:46;;;;;;;;;;;18.70;83.70;;;;;;5044849;28;19925;-76
2022/05/07 07:21:12;;;;;;;;;;;18.80;83.80;;;;;;5012430;28;20009;-76
2022/05/07 07:23:38;;;;;;;;;;;18.70;83.50;;;;;;5013073;28;19913;-76
2022/05/07 07:26:06;;;;;;;;;;;18.90;84.70;;;;;;5013106;28;19913;-76
2022/05/07 07:28:31;;;;;;;;;;;19.00;84.40;;;;;;5013394;28;20335;-76
2022/05/07 07:30:58;;;;;;;;;;;19.10;83.70;;;;;;5012917;28;19924;-75
2022/05/07 07:33:23;;;;;;;;;;;19.00;83.50;;;;;;5012834;28;19914;-76
2022/05/07 07:35:48;;;;;;;;;;;18.90;83.40;;;;;;5012633;28;19936;-76
2022/05/07 07:38:14;;;;;;;;;;;18.90;83.80;;;;;;5012605;28;19976;-75
2022/05/07 07:40:40;;;;;;;;;;;19.10;84.00;;;;;;5045191;28;19932;-75
2022/05/07 07:43:06;;;;;;;;;;;19.20;83.70;;;;;;5012783;28;19913;-76
2022/05/07 07:48:16;;;;;;;;;;;19.60;83.20;;;;;;5012484;28;19994;-76
2022/05/07 07:50:41;;;;;;;;;;;20.00;84.60;;;;;;5012658;28;19917;-76
2022/05/07 07:53:08;;;;;;;;;;;20.20;84.00;;;;;;5028014;28;19949;-76
2022/05/07 07:55:40;;;;;;;;;;;20.30;83.50;;;;;;5012743;28;20019;-75
2022/05/07 07:58:07;;;;;;;;;;;20.30;82.10;;;;;;5027981;28;19921;-75
2022/05/07 08:00:33;;;;;;;;;;;20.30;82.00;;;;;;5027787;28;20005;-75
2022/05/07 08:03:00;;;;;;;;;;;20.20;82.20;;;;;;5012341;28;20397;-76
2022/05/07 08:05:27;;;;;;;;;;;20.30;82.00;;;;;;5012416;28;20405;-76
2022/05/07 08:13:22;;;;;;;;;;;20.30;83.30;;;;;;5012369;28;19936;-74
2022/05/07 08:15:48;;;;;;;;;;;20.20;83.30;;;;;;5043964;28;20383;-75
2022/05/07 08:18:14;;;;;;;;;;;20.20;83.00;;;;;;5012092;28;20322;-76
2022/05/07 08:20:41;;;;;;;;;;;20.10;83.40;;;;;;5012173;28;19996;-76
2022/05/07 08:23:07;;;;;;;;;;;20.00;83.30;;;;;;5012068;28;19960;-76
2022/05/07 08:25:32;;;;;;;;;;;20.00;83.40;;;;;;5012275;28;19995;-75
2022/05/07 08:27:58;;;;;;;;;;;20.00;83.70;;;;;;5012405;28;20414;-75
2022/05/07 08:30:23;;;;;;;;;;;20.00;83.60;;;;;;5011550;28;20347;-75
2022/05/07 08:32:49;;;;;;;;;;;20.10;84.10;;;;;;5043888;28;19921;-76
2022/05/07 08:35:14;;;;;;;;;;;20.10;83.90;;;;;;5011702;28;19941;-75
2022/05/07 08:37:40;;;;;;;;;;;20.10;84.00;;;;;;5012286;28;19924;-75
2022/05/07 08:40:06;;;;;;;;;;;20.20;83.40;;;;;;5027271;28;20028;-76
2022/05/07 08:42:31;;;;;;;;;;;20.50;82.90;;;;;;5011719;28;19962;-76
2022/05/07 08:44:57;;;;;;;;;;;20.70;82.70;;;;;;5011846;28;19918;-76
2022/05/07 08:47:23;;;;;;;;;;;20.50;82.40;;;;;;5011791;28;19921;-76
2022/05/07 08:49:52;;;;;;;;;;;20.40;82.90;;;;;;5011697;28;19932;-76
2022/05/07 08:52:18;;;;;;;;;;;20.70;82.80;;;;;;5043730;28;19918;-76
2022/05/07 08:54:45;;;;;;;;;;;21.00;82.50;;;;;;5011678;28;20160;-76
2022/05/07 08:57:11;;;;;;;;;;;21.60;81.40;;;;;;5026772;28;19941;-75
2022/05/07 08:59:37;;;;;;;;;;;22.40;80.00;;;;;;5011517;28;19987;-76
2022/05/07 09:02:03;;;;;;;;;;;23.20;76.70;;;;;;5011487;28;19910;-76
2022/05/07 09:04:28;;;;;;;;;;;23.90;74.60;;;;;;5011834;28;19924;-77
2022/05/07 09:06:55;;;;;;;;;;;25.00;71.70;;;;;;5011520;28;19922;-75
2022/05/07 09:09:21;;;;;;;;;;;25.80;70.60;;;;;;5026843;28;19949;-76
2022/05/07 09:11:46;;;;;;;;;;;26.60;66.50;;;;;;5011421;28;20247;-75
2022/05/07 09:14:14;;;;;;;;;;;27.30;65.00;;;;;;5011318;28;19913;-76
2022/05/07 09:16:45;;;;;;;;;;;27.50;60.80;;;;;;5027217;28;19913;-75
2022/05/07 09:19:27;;;;;;;;;;;28.00;58.50;;;;;;5043347;28;19917;-77
2022/05/07 09:22:06;;;;;;;;;;;28.10;58.20;;;;;;5026954;28;19940;-75
2022/05/07 09:24:31;;;;;;;;;;;27.50;57.00;;;;;;5011258;28;19913;-76
2022/05/07 09:26:57;;;;;;;;;;;26.80;57.70;;;;;;5011456;28;19914;-76
2022/05/07 09:29:26;;;;;;;;;;;27.10;58.10;;;;;;5011180;28;19914;-76
2022/05/07 09:31:51;;;;;;;;;;;27.50;57.50;;;;;;5011600;28;19910;-76
2022/05/07 09:37:13;;;;;;;;;;;26.90;56.10;;;;;;5011316;28;20013;-75
2022/05/07 09:39:38;;;;;;;;;;;26.10;56.70;;;;;;5011013;28;19924;-76
2022/05/07 09:42:07;;;;;;;;;;;26.30;57.10;;;;;;5011080;28;19923;-76
2022/05/07 09:44:32;;;;;;;;;;;26.90;55.80;;;;;;5014093;28;20375;-75
2022/05/07 09:46:59;;;;;;;;;;;26.70;56.80;;;;;;5014732;28;19909;-75
2022/05/07 09:49:28;;;;;;;;;;;27.50;56.10;;;;;;5030521;28;19952;-77
2022/05/07 09:51:55;;;;;;;;;;;27.50;56.00;;;;;;5014928;28;19956;-77
2022/05/07 09:59:51;;;;;;;;;;;27.30;54.70;;;;;;5014609;28;20361;-76
2022/05/07 10:02:35;;;;;;;;;;;27.20;55.00;;;;;;5014283;28;19968;-75
2022/05/07 10:05:06;;;;;;;;;;;27.30;54.70;;;;;;5046188;28;19913;-76
2022/05/07 10:07:40;;;;;;;;;;;27.20;54.70;;;;;;5030447;28;20008;-76
2022/05/07 10:10:17;;;;;;;;;;;27.10;54.60;;;;;;5046670;28;20247;-76
2022/05/07 10:12:44;;;;;;;;;;;26.80;54.80;;;;;;5014160;28;19929;-76
2022/05/07 10:15:12;;;;;;;;;;;26.60;54.90;;;;;;5014247;28;19960;-75
2022/05/07 10:17:37;;;;;;;;;;;26.90;55.00;;;;;;5014282;28;19917;-76
2022/05/07 10:20:04;;;;;;;;;;;27.00;55.20;;;;;;5046162;28;19971;-76
2022/05/07 10:22:29;;;;;;;;;;;26.40;54.90;;;;;;5014584;28;19914;-75
2022/05/07 10:25:01;;;;;;;;;;;26.00;54.90;;;;;;5014134;28;19914;-75
2022/05/07 10:27:30;;;;;;;;;;;26.10;55.00;;;;;;5014092;28;19918;-75
2022/05/07 10:30:06;;;;;;;;;;;26.00;56.00;;;;;;5013904;28;19913;-75
2022/05/07 10:32:51;;;;;;;;;;;26.10;56.10;;;;;;5013880;28;20332;-76
2022/05/07 10:35:37;;;;;;;;;;;26.10;56.10;;;;;;5045647;28;19925;-75
2022/05/07 10:38:06;;;;;;;;;;;26.10;55.50;;;;;;5029464;28;19910;-76
2022/05/07 10:40:31;;;;;;;;;;;26.00;55.50;;;;;;5014326;28;20377;-76
2022/05/07 10:42:57;;;;;;;;;;;26.10;55.00;;;;;;5013739;28;20191;-76
2022/05/07 10:45:24;;;;;;;;;;;26.10;54.50;;;;;;5013698;28;20220;-75
2022/05/07 10:47:53;;;;;;;;;;;26.00;54.80;;;;;;5045665;28;20298;-75
2022/05/07 10:50:20;;;;;;;;;;;25.70;55.40;;;;;;5013367;28;19926;-76
2022/05/07 10:52:53;;;;;;;;;;;25.20;55.40;;;;;;5014082;28;19943;-76
2022/05/07 10:55:23;;;;;;;;;;;25.00;55.30;;;;;;5013248;28;20016;-75
2022/05/07 10:57:49;;;;;;;;;;;25.00;55.10;;;;;;5045549;28;19913;-76
2022/05/07 11:00:14;;;;;;;;;;;25.30;55.10;;;;;;5028859;28;20387;-76
2022/05/07 11:02:40;;;;;;;;;;;25.40;53.90;;;;;;5013423;28;19918;-75
2022/05/07 11:05:06;;;;;;;;;;;25.30;54.40;;;;;;5013371;28;19949;-75
2022/05/07 11:07:32;;;;;;;;;;;25.50;54.40;;;;;;5013803;28;19905;-76
2022/05/07 11:09:58;;;;;;;;;;;25.40;55.00;;;;;;5013352;28;19920;-75
2022/05/07 11:12:26;;;;;;;;;;;25.30;54.90;;;;;;5013023;28;20286;-76
2022/05/07 11:14:52;;;;;;;;;;;25.30;53.30;;;;;;5028135;28;20427;-75
2022/05/07 11:17:27;;;;;;;;;;;25.60;52.50;;;;;;5012921;28;19992;-75
2022/05/07 11:19:53;;;;;;;;;;;25.60;52.30;;;;;;5013488;28;19916;-75
2022/05/07 11:22:23;;;;;;;;;;;25.60;51.30;;;;;;5013070;28;19917;-74
2022/05/07 11:24:55;;;;;;;;;;;25.40;51.70;;;;;;5012983;28;19961;-75
2022/05/07 11:27:21;;;;;;;;;;;25.30;52.40;;;;;;5028395;28;20537;-76
2022/05/07 11:29:47;;;;;;;;;;;25.40;52.60;;;;;;5012884;28;19922;-75
2022/05/07 11:32:13;;;;;;;;;;;25.40;52.20;;;;;;5012728;28;19914;-76
2022/05/07 11:34:39;;;;;;;;;;;25.60;52.50;;;;;;5028613;28;19919;-75
2022/05/07 11:37:09;;;;;;;;;;;25.70;52.50;;;;;;5013011;28;20397;-75
2022/05/07 11:39:34;;;;;;;;;;;25.90;52.20;;;;;;5012693;28;20314;-76
2022/05/07 11:41:59;;;;;;;;;;;25.60;52.20;;;;;;5012779;28;20014;-76
2022/05/07 11:47:20;;;;;;;;;;;25.30;52.70;;;;;;5012660;28;20558;-75
2022/05/07 11:49:56;;;;;;;;;;;25.30;52.70;;;;;;5012616;28;19932;-75
2022/05/07 11:52:26;;;;;;;;;;;25.00;52.50;;;;;;5012575;28;19918;-75
2022/05/07 11:54:52;;;;;;;;;;;24.90;52.90;;;;;;5012377;28;19928;-76
2022/05/07 11:57:27;;;;;;;;;;;24.80;52.70;;;;;;5012353;28;19914;-76
2022/05/07 11:59:53;;;;;;;;;;;24.60;53.10;;;;;;5044342;28;19964;-74
2022/05/07 12:02:18;;;;;;;;;;;24.40;53.00;;;;;;5012411;28;19925;-75
2022/05/07 12:04:44;;;;;;;;;;;24.60;53.40;;;;;;5012840;28;19964;-76
2022/05/07 12:07:10;;;;;;;;;;;24.60;53.00;;;;;;5011749;28;19928;-76
2022/05/07 12:09:36;;;;;;;;;;;24.60;52.70;;;;;;5012363;28;20012;-76
2022/05/07 12:12:01;;;;;;;;;;;24.80;53.10;;;;;;5012087;28;20358;-76
2022/05/07 12:14:26;;;;;;;;;;;24.90;53.10;;;;;;5011906;28;20378;-76
2022/05/07 12:19:36;;;;;;;;;;;24.80;53.50;;;;;;5012156;28;19978;-76
2022/05/07 12:30:18;;;;;;;;;;;24.50;50.90;;;;;;5011968;28;19924;-75
2022/05/07 12:32:44;;;;;;;;;;;24.60;51.00;;;;;;5011904;28;19928;-75
2022/05/07 12:35:13;;;;;;;;;;;24.60;52.00;;;;;;5043782;28;19913;-73
2022/05/07 12:37:39;;;;;;;;;;;24.60;52.40;;;;;;5044319;28;19910;-75
2022/05/07 12:40:07;;;;;;;;;;;24.80;52.80;;;;;;5027352;28;19928;-74
2022/05/07 12:42:32;;;;;;;;;;;24.90;53.10;;;;;;5011614;28;20378;-75
2022/05/07 12:44:58;;;;;;;;;;;24.90;53.60;;;;;;5011613;28;19913;-76
2022/05/07 12:47:23;;;;;;;;;;;25.00;54.20;;;;;;5026942;28;20216;-76
2022/05/07 12:49:49;;;;;;;;;;;25.00;54.80;;;;;;5011934;28;19929;-75
2022/05/07 12:52:16;;;;;;;;;;;24.90;55.10;;;;;;5011687;28;19944;-75
2022/05/07 12:54:41;;;;;;;;;;;24.80;55.30;;;;;;5043389;28;19918;-75
2022/05/07 12:57:07;;;;;;;;;;;24.80;55.60;;;;;;5011479;28;19913;-76
2022/05/07 12:59:32;;;;;;;;;;;24.80;55.90;;;;;;5027026;28;20004;-75
2022/05/07 13:01:58;;;;;;;;;;;24.80;55.70;;;;;;5043416;28;19910;-75
2022/05/07 13:04:24;;;;;;;;;;;24.80;55.50;;;;;;5011734;28;19939;-76
2022/05/07 13:06:53;;;;;;;;;;;24.80;55.90;;;;;;5011431;28;19983;-76
2022/05/07 13:09:18;;;;;;;;;;;24.70;55.30;;;;;;5011466;28;19936;-75
2022/05/07 13:11:44;;;;;;;;;;;24.60;55.30;;;;;;5011353;28;20240;-76
2022/05/07 13:14:10;;;;;;;;;;;24.60;55.60;;;;;;5011282;28;19913;-75
2022/05/07 13:16:35;;;;;;;;;;;24.60;55.70;;;;;;5011914;28;19901;-75
2022/05/07 13:19:01;;;;;;;;;;;24.60;55.90;;;;;;5015571;28;19924;-75
2022/05/07 13:21:27;;;;;;;;;;;24.60;56.00;;;;;;5015173;28;19948;-75
2022/05/07 13:23:52;;;;;;;;;;;24.70;56.30;;;;;;5015006;28;19945;-74
2022/05/07 13:26:18;;;;;;;;;;;24.60;56.30;;;;;;5015002;28;19967;-76
2022/05/07 13:28:43;;;;;;;;;;;24.50;56.50;;;;;;5031074;28;19944;-74
2022/05/07 13:31:09;;;;;;;;;;;24.40;56.80;;;;;;5015212;28;20508;-74
2022/05/07 13:33:34;;;;;;;;;;;24.40;57.10;;;;;;5014949;28;20296;-75
2022/05/07 13:36:00;;;;;;;;;;;24.20;57.10;;;;;;5014881;28;20021;-75
2022/05/07 13:38:25;;;;;;;;;;;23.90;57.60;;;;;;5015214;28;19913;-75
2022/05/07 13:40:51;;;;;;;;;;;23.30;60.50;;;;;;5015370;28;19920;-75
2022/05/07 13:43:16;;;;;;;;;;;22.60;63.20;;;;;;5015030;28;19997;-76
2022/05/07 13:45:42;;;;;;;;;;;22.40;64.20;;;;;;5046821;28;20267;-77
2022/05/07 13:48:07;;;;;;;;;;;22.20;65.20;;;;;;5014959;28;19920;-77
2022/05/07 13:50:33;;;;;;;;;;;22.10;66.30;;;;;;5014513;28;20322;-76
2022/05/07 13:52:59;;;;;;;;;;;22.20;67.30;;;;;;5014814;28;20068;-75
2022/05/07 13:55:25;;;;;;;;;;;22.40;67.50;;;;;;5014912;28;20016;-76
2022/05/07 13:57:50;;;;;;;;;;;22.50;67.50;;;;;;5014717;28;19917;-75
2022/05/07 14:00:16;;;;;;;;;;;22.50;67.70;;;;;;5030074;28;19914;-76
2022/05/07 14:02:46;;;;;;;;;;;22.50;68.10;;;;;;5014404;28;19926;-76
2022/05/07 14:05:15;;;;;;;;;;;22.50;67.90;;;;;;5014562;28;19920;-75
2022/05/07 14:07:41;;;;;;;;;;;22.50;67.80;;;;;;5014921;28;19916;-75
2022/05/07 14:10:07;;;;;;;;;;;22.40;68.30;;;;;;5014462;28;19914;-75
2022/05/07 14:12:32;;;;;;;;;;;22.30;68.30;;;;;;5014351;28;19997;-76
2022/05/07 14:14:58;;;;;;;;;;;22.20;67.60;;;;;;5014365;28;20007;-75
2022/05/07 14:17:23;;;;;;;;;;;22.10;67.30;;;;;;5014406;28;19918;-76
2022/05/07 14:19:54;;;;;;;;;;;22.10;67.50;;;;;;5046779;28;20383;-76
2022/05/07 14:22:19;;;;;;;;;;;22.10;67.70;;;;;;5014546;28;19929;-76
2022/05/07 14:24:45;;;;;;;;;;;22.00;68.40;;;;;;5014149;28;19914;-76
2022/05/07 14:27:11;;;;;;;;;;;22.00;68.80;;;;;;5014174;28;19924;-75
2022/05/07 14:29:37;;;;;;;;;;;21.80;70.50;;;;;;5045469;28;19913;-76
2022/05/07 14:32:04;;;;;;;;;;;21.60;72.80;;;;;;5046102;28;19909;-75
2022/05/07 14:34:29;;;;;;;;;;;21.50;74.10;;;;;;5014363;28;19925;-75
2022/05/07 14:36:56;;;;;;;;;;;21.40;74.60;;;;;;5013999;28;19925;-76
2022/05/07 14:39:21;;;;;;;;;;;21.30;73.90;;;;;;5013929;28;20004;-76
2022/05/07 14:41:47;;;;;;;;;;;21.20;74.10;;;;;;5013747;28;20008;-77
2022/05/07 14:44:12;;;;;;;;;;;21.10;75.90;;;;;;5013773;28;20327;-76
2022/05/07 14:46:38;;;;;;;;;;;21.10;75.50;;;;;;5014278;28;19905;-75
2022/05/07 14:49:04;;;;;;;;;;;21.00;75.60;;;;;;5013559;28;20308;-76
2022/05/07 14:51:29;;;;;;;;;;;21.00;75.90;;;;;;5045955;28;19917;-76
2022/05/07 14:53:55;;;;;;;;;;;20.90;76.40;;;;;;5045752;28;19926;-76
2022/05/07 14:56:20;;;;;;;;;;;20.90;76.50;;;;;;5013585;28;19914;-76